Time;durP1;ratioP1;P1;durP2;ratioP2;P2;SDS_P1;SDS_P2;PMS_P1;PMS_P2;Temp;Humidity;BMP_temperature;BMP_pressure;BME280_temperature;BME280_humidity;BME280_pressure;Samples;Min_cycle;Max_cycle;Signal;HPM_P1;HPM_P2
2024/03/07 10:46:13;;;;;;;21.93;9.23;;;9.90;99.90;;;;;;3261428;27;20234;-73
2024/03/07 10:48:43;;;;;;;23.93;9.03;;;9.80;99.90;;;;;;4898719;29;20289;-73
2024/03/07 10:51:20;;;;;;;17.87;7.93;;;9.80;99.90;;;;;;4880194;29;20234;-74
2024/03/07 10:53:58;;;;;;;25.07;9.47;;;9.70;99.90;;;;;;4892911;29;20297;-77
2024/03/07 10:56:39;;;;;;;27.10;9.87;;;9.70;99.90;;;;;;4879601;29;20259;-74
2024/03/07 10:59:17;;;;;;;26.30;9.10;;;9.80;99.90;;;;;;4895173;29;20238;-81
2024/03/07 11:01:50;;;;;;;21.47;9.20;;;9.90;99.90;;;;;;4898698;29;20226;-79
2024/03/07 11:04:18;;;;;;;21.23;8.03;;;10.10;99.90;;;;;;4898727;29;20566;-79
2024/03/07 11:06:45;;;;;;;21.87;9.60;;;10.30;99.90;;;;;;4898584;29;20687;-79
2024/03/07 11:09:13;;;;;;;22.17;9.17;;;10.40;99.90;;;;;;4898243;29;20218;-80
2024/03/07 11:11:42;;;;;;;19.77;8.97;;;10.40;99.90;;;;;;4898184;29;20391;-77
2024/03/07 11:14:10;;;;;;;18.90;8.47;;;10.40;99.90;;;;;;4898147;29;20722;-77
2024/03/07 11:16:39;;;;;;;21.70;7.90;;;10.60;99.90;;;;;;4897879;29;20299;-73
2024/03/07 11:19:27;;;;;;;21.67;8.33;;;10.80;99.90;;;;;;4897666;29;20207;-78
2024/03/07 11:21:55;;;;;;;18.80;7.57;;;11.10;99.90;;;;;;4897996;29;20265;-74
2024/03/07 11:24:28;;;;;;;18.57;8.93;;;11.20;99.90;;;;;;4897934;29;20206;-74
2024/03/07 11:26:56;;;;;;;18.47;8.77;;;10.90;99.90;;;;;;4897674;29;20670;-72
2024/03/07 11:29:42;;;;;;;17.27;7.10;;;10.60;99.90;;;;;;4897649;29;20242;-73
2024/03/07 11:32:11;;;;;;;20.23;7.33;;;10.70;99.90;;;;;;4897639;29;20234;-75
2024/03/07 11:34:42;;;;;;;21.57;8.53;;;11.00;99.90;;;;;;4897737;29;20240;-72
2024/03/07 11:37:17;;;;;;;18.03;7.57;;;11.50;99.90;;;;;;4897756;29;20214;-74
2024/03/07 11:39:46;;;;;;;15.60;6.63;;;11.70;99.90;;;;;;4896282;29;20206;-73
2024/03/07 11:42:26;;;;;;;17.47;6.63;;;11.50;99.90;;;;;;4897292;29;20230;-76
2024/03/07 11:44:55;;;;;;;14.73;7.03;;;11.30;99.90;;;;;;4897573;29;20214;-77
2024/03/07 11:47:24;;;;;;;19.37;8.07;;;10.80;99.90;;;;;;4897849;29;20210;-73
2024/03/07 11:49:53;;;;;;;16.67;7.40;;;10.60;99.90;;;;;;4897814;29;20233;-73
2024/03/07 11:52:20;;;;;;;15.33;7.20;;;10.60;99.90;;;;;;4897630;29;20322;-76
2024/03/07 11:54:47;;;;;;;17.40;7.97;;;10.60;99.90;;;;;;4897351;29;20325;-75
2024/03/07 11:57:16;;;;;;;15.23;7.43;;;10.70;99.90;;;;;;4897766;29;20305;-77
2024/03/07 11:59:45;;;;;;;18.80;7.03;;;10.70;99.90;;;;;;4897665;29;20683;-76
2024/03/07 12:02:15;;;;;;;13.17;6.73;;;10.70;99.90;;;;;;4897647;29;20234;-76
2024/03/07 12:04:42;;;;;;;13.40;6.27;;;10.50;99.90;;;;;;4897419;29;20218;-76
2024/03/07 12:07:11;;;;;;;16.40;6.97;;;10.50;99.90;;;;;;4897241;29;20238;-73
2024/03/07 12:09:39;;;;;;;16.03;6.97;;;10.50;99.90;;;;;;4897381;29;20218;-75
2024/03/07 12:12:07;;;;;;;16.87;7.13;;;10.50;99.90;;;;;;4897396;29;20257;-75
2024/03/07 12:14:34;;;;;;;15.30;6.20;;;10.50;99.90;;;;;;4897127;29;20270;-76
2024/03/07 12:17:03;;;;;;;14.30;6.70;;;10.70;99.90;;;;;;4897441;29;20297;-76
2024/03/07 12:19:32;;;;;;;12.23;5.77;;;10.50;99.90;;;;;;4897312;29;20477;-75
2024/03/07 12:22:01;;;;;;;14.30;6.77;;;10.40;99.90;;;;;;4897422;29;20715;-73
2024/03/07 12:24:30;;;;;;;16.43;7.30;;;10.50;99.90;;;;;;4897388;29;20556;-73
2024/03/07 12:27:08;;;;;;;15.63;7.43;;;10.80;99.90;;;;;;4897643;29;20238;-75
2024/03/07 12:29:37;;;;;;;13.90;6.37;;;11.00;99.90;;;;;;4897491;29;20583;-76
2024/03/07 12:32:06;;;;;;;17.00;7.87;;;11.10;99.90;;;;;;4896904;29;20258;-73
2024/03/07 12:34:37;;;;;;;15.30;7.70;;;11.30;99.90;;;;;;4897333;29;20245;-77
2024/03/07 12:37:04;;;;;;;16.57;7.77;;;11.40;99.90;;;;;;4897412;29;20671;-75
2024/03/07 12:39:35;;;;;;;16.33;7.17;;;11.50;99.90;;;;;;4897467;29;20253;-77
2024/03/07 12:42:04;;;;;;;16.53;7.33;;;11.50;99.90;;;;;;4896956;29;20322;-75
2024/03/07 12:44:42;;;;;;;14.70;7.03;;;11.10;99.90;;;;;;4897072;29;20246;-74
2024/03/07 12:47:10;;;;;;;15.67;7.57;;;11.20;99.90;;;;;;4894462;29;20219;-73
2024/03/07 12:49:38;;;;;;;13.17;6.73;;;11.30;99.90;;;;;;4895519;29;20293;-72
2024/03/07 12:52:07;;;;;;;14.47;6.30;;;11.30;99.90;;;;;;4899534;29;20230;-72
2024/03/07 12:54:37;;;;;;;16.07;7.93;;;11.40;99.90;;;;;;4900580;29;20301;-76
2024/03/07 12:57:05;;;;;;;14.67;6.27;;;11.50;99.90;;;;;;4900905;29;20206;-75
2024/03/07 12:59:32;;;;;;;14.13;6.93;;;11.40;99.90;;;;;;4900906;29;20305;-73
2024/03/07 13:01:59;;;;;;;16.70;7.57;;;11.20;99.90;;;;;;4901234;29;20238;-76
2024/03/07 13:04:27;;;;;;;13.13;6.77;;;11.00;99.90;;;;;;4900735;29;20618;-76
2024/03/07 13:06:54;;;;;;;14.60;7.17;;;11.00;99.90;;;;;;4901202;29;20297;-77
2024/03/07 13:09:26;;;;;;;15.50;7.90;;;10.80;99.90;;;;;;4900930;29;20261;-75
2024/03/07 13:11:55;;;;;;;15.17;7.43;;;10.70;99.90;;;;;;4900327;29;20230;-77
2024/03/07 13:14:22;;;;;;;15.20;6.57;;;10.50;99.90;;;;;;4901056;29;20333;-75
2024/03/07 13:16:49;;;;;;;13.37;6.30;;;10.50;99.90;;;;;;4900489;29;20305;-74
2024/03/07 13:19:20;;;;;;;12.13;6.47;;;10.50;99.90;;;;;;4900205;29;20668;-73
2024/03/07 13:21:48;;;;;;;12.20;5.87;;;10.40;99.90;;;;;;4900059;29;20783;-72
2024/03/07 13:24:15;;;;;;;12.83;6.43;;;10.20;99.90;;;;;;4900099;29;20687;-77
2024/03/07 13:26:44;;;;;;;16.60;7.27;;;10.00;99.90;;;;;;4900584;29;20238;-72
2024/03/07 13:29:12;;;;;;;14.13;7.23;;;10.10;99.90;;;;;;4900263;29;20257;-75
2024/03/07 13:31:42;;;;;;;16.97;6.90;;;10.20;99.90;;;;;;4900339;29;20356;-73
2024/03/07 13:34:12;;;;;;;16.20;7.27;;;10.30;99.90;;;;;;4900035;29;20314;-72
2024/03/07 13:36:40;;;;;;;13.17;6.27;;;10.50;99.90;;;;;;4900291;29;20217;-73
2024/03/07 13:39:10;;;;;;;13.53;6.30;;;10.20;99.90;;;;;;4900064;29;20310;-75
2024/03/07 13:41:37;;;;;;;15.43;7.67;;;10.10;99.90;;;;;;4899628;29;20234;-76
2024/03/07 13:44:05;;;;;;;15.83;7.03;;;10.10;99.90;;;;;;4899984;29;20707;-76
2024/03/07 13:46:33;;;;;;;15.83;7.07;;;10.30;99.90;;;;;;4899940;29;20261;-77
2024/03/07 13:49:07;;;;;;;13.83;6.13;;;10.50;99.90;;;;;;4899804;29;20210;-75
2024/03/07 13:51:36;;;;;;;14.60;6.53;;;10.40;99.90;;;;;;4899596;29;20222;-77
2024/03/07 13:54:25;;;;;;;14.57;6.70;;;10.30;99.90;;;;;;4899723;29;20234;-77
2024/03/07 13:57:05;;;;;;;17.90;6.80;;;10.50;99.90;;;;;;4899597;29;20683;-75
2024/03/07 14:00:15;;;;;;;13.07;6.00;;;10.30;99.90;;;;;;4899701;29;20571;-76
2024/03/07 14:03:18;;;;;;;15.60;6.87;;;10.10;99.90;;;;;;4875310;29;20237;-76
2024/03/07 14:06:06;;;;;;;17.37;6.93;;;10.20;99.90;;;;;;4899481;29;20249;-72
2024/03/07 14:08:55;;;;;;;13.70;5.83;;;10.00;99.90;;;;;;4899827;29;20584;-73
2024/03/07 14:11:55;;;;;;;12.33;5.67;;;10.20;99.90;;;;;;4880023;29;20245;-76
2024/03/07 14:15:10;;;;;;;10.23;5.17;;;10.10;99.90;;;;;;4898988;29;20725;-74
2024/03/07 14:18:14;;;;;;;10.17;5.10;;;10.10;99.90;;;;;;4899883;29;20218;-75
2024/03/07 14:21:11;;;;;;;11.27;5.70;;;10.10;99.90;;;;;;4898717;29;20750;-74
2024/03/07 14:24:03;;;;;;;12.53;5.70;;;10.10;99.90;;;;;;4899427;29;20305;-74
2024/03/07 14:26:47;;;;;;;12.80;5.83;;;10.10;99.90;;;;;;4899341;29;20226;-77
2024/03/07 14:29:22;;;;;;;11.20;5.70;;;10.20;99.90;;;;;;4899040;29;20697;-72
2024/03/07 14:31:50;;;;;;;12.33;5.83;;;10.20;99.90;;;;;;4898927;29;20726;-77
2024/03/07 14:34:30;;;;;;;12.43;6.43;;;10.10;99.90;;;;;;4899256;29;20242;-78
2024/03/07 14:37:09;;;;;;;10.07;5.23;;;10.30;99.90;;;;;;4898598;29;20214;-74
2024/03/07 14:39:39;;;;;;;11.70;6.07;;;10.30;99.90;;;;;;4898746;29;20249;-72
2024/03/07 14:42:09;;;;;;;9.93;5.17;;;10.30;99.90;;;;;;4898626;29;20234;-73
2024/03/07 14:44:39;;;;;;;10.83;5.63;;;10.30;99.90;;;;;;4898883;29;20267;-77
2024/03/07 14:47:10;;;;;;;9.67;5.07;;;10.30;99.90;;;;;;4898598;29;20246;-77
2024/03/07 14:49:39;;;;;;;11.73;5.23;;;10.30;99.90;;;;;;4898679;29;20206;-77
2024/03/07 14:52:10;;;;;;;10.03;5.10;;;10.30;99.90;;;;;;4898555;29;20742;-72
2024/03/07 14:54:38;;;;;;;11.10;5.03;;;10.20;99.90;;;;;;4899065;29;20238;-77
2024/03/07 14:57:05;;;;;;;11.90;5.10;;;10.20;99.90;;;;;;4898317;29;20264;-74
2024/03/07 14:59:32;;;;;;;15.27;5.50;;;10.10;99.90;;;;;;4899155;29;20562;-77
2024/03/07 15:01:59;;;;;;;11.80;5.27;;;10.10;99.90;;;;;;4898246;29;20258;-74
2024/03/07 15:04:30;;;;;;;9.30;4.63;;;10.10;99.90;;;;;;4898398;29;20261;-72
2024/03/07 15:06:57;;;;;;;11.03;5.50;;;10.10;99.90;;;;;;4898408;29;20238;-73
2024/03/07 15:09:30;;;;;;;11.10;5.70;;;10.10;99.90;;;;;;4898398;29;20679;-75
2024/03/07 15:11:57;;;;;;;11.83;5.63;;;10.20;99.90;;;;;;4898342;29;20257;-77
2024/03/07 15:14:24;;;;;;;7.60;4.17;;;10.30;99.90;;;;;;4898249;29;20707;-73
2024/03/07 15:16:51;;;;;;;10.43;5.03;;;10.30;99.90;;;;;;4897995;29;20238;-72
2024/03/07 15:19:18;;;;;;;9.00;4.70;;;10.20;99.90;;;;;;4898573;29;20246;-73
2024/03/07 15:21:47;;;;;;;10.30;4.77;;;10.20;99.90;;;;;;4898536;29;20241;-72
2024/03/07 15:24:14;;;;;;;10.97;5.80;;;10.10;99.90;;;;;;4898175;29;20214;-77
2024/03/07 15:26:43;;;;;;;12.83;4.93;;;10.10;99.90;;;;;;4898041;29;20215;-77
2024/03/07 15:29:10;;;;;;;10.53;5.00;;;10.00;99.90;;;;;;4898056;29;20218;-77
2024/03/07 15:31:37;;;;;;;12.10;5.30;;;10.00;99.90;;;;;;4897490;29;20266;-75
2024/03/07 15:34:04;;;;;;;10.70;5.43;;;9.90;99.90;;;;;;4897770;29;20313;-77
2024/03/07 15:36:31;;;;;;;9.83;5.37;;;9.90;99.90;;;;;;4897831;29;20626;-73
2024/03/07 15:38:58;;;;;;;11.20;5.30;;;9.90;99.90;;;;;;4898045;29;20224;-75
2024/03/07 15:41:25;;;;;;;11.77;6.10;;;10.10;99.90;;;;;;4897729;29;20230;-76
2024/03/07 15:43:54;;;;;;;10.77;5.30;;;10.00;99.90;;;;;;4898083;29;20214;-73
2024/03/07 15:46:22;;;;;;;14.53;5.63;;;9.90;99.90;;;;;;4897825;29;20222;-76
2024/03/07 15:48:49;;;;;;;13.40;5.70;;;9.80;99.90;;;;;;4897803;29;20561;-73
2024/03/07 15:51:17;;;;;;;13.03;5.70;;;9.90;99.90;;;;;;4897556;29;20262;-74
2024/03/07 15:53:43;;;;;;;14.93;6.20;;;9.90;99.90;;;;;;4897528;29;20572;-77
2024/03/07 15:56:10;;;;;;;13.03;5.60;;;10.00;99.90;;;;;;4897507;29;20266;-73
2024/03/07 15:58:38;;;;;;;11.03;4.97;;;10.00;99.90;;;;;;4897890;29;20245;-77
2024/03/07 16:01:06;;;;;;;11.83;4.93;;;10.00;99.90;;;;;;4897510;29;20633;-73
2024/03/07 16:03:33;;;;;;;13.40;5.47;;;9.90;99.90;;;;;;4897776;29;20206;-72
2024/03/07 16:06:01;;;;;;;10.50;5.27;;;9.90;99.90;;;;;;4897310;29;20252;-76
2024/03/07 16:08:29;;;;;;;11.37;5.27;;;9.90;99.90;;;;;;4897682;29;20257;-78
2024/03/07 16:10:55;;;;;;;7.93;4.17;;;9.90;99.90;;;;;;4897156;29;20341;-77
2024/03/07 16:13:24;;;;;;;15.00;5.07;;;9.80;99.90;;;;;;4897482;29;20671;-78
2024/03/07 16:15:51;;;;;;;10.03;4.13;;;9.90;99.90;;;;;;4897775;29;20241;-74
2024/03/07 16:18:23;;;;;;;9.73;4.77;;;9.80;99.90;;;;;;4897662;29;20214;-77
2024/03/07 16:20:50;;;;;;;10.47;4.63;;;9.80;99.90;;;;;;4897658;29;20284;-73
2024/03/07 16:23:17;;;;;;;11.77;4.77;;;9.80;99.90;;;;;;4897544;29;20237;-75
2024/03/07 16:25:44;;;;;;;11.30;4.33;;;9.80;99.90;;;;;;4897657;29;20210;-77
2024/03/07 16:28:12;;;;;;;11.43;4.87;;;9.90;99.90;;;;;;4901593;29;20238;-73
2024/03/07 16:30:43;;;;;;;8.00;4.30;;;9.90;99.90;;;;;;4901550;29;20238;-73
2024/03/07 16:33:10;;;;;;;8.27;3.93;;;9.90;99.90;;;;;;4901613;29;20210;-72
2024/03/07 16:35:39;;;;;;;11.43;4.80;;;9.90;99.90;;;;;;4901334;29;20730;-75
2024/03/07 16:38:09;;;;;;;11.33;4.23;;;9.80;99.90;;;;;;4900926;29;20206;-72
2024/03/07 16:40:37;;;;;;;9.77;4.40;;;9.80;99.90;;;;;;4901252;29;20278;-75
2024/03/07 16:43:07;;;;;;;8.93;4.23;;;9.90;99.90;;;;;;4934420;23;20241;-76
2024/03/07 16:45:35;;;;;;;14.77;4.87;;;9.80;99.90;;;;;;4919945;29;20693;-77
2024/03/07 16:48:03;;;;;;;11.77;4.70;;;9.80;99.90;;;;;;4919700;29;20269;-80
2024/03/07 16:50:31;;;;;;;10.03;4.37;;;9.80;99.90;;;;;;4919949;29;20300;-76
2024/03/07 16:53:02;;;;;;;10.57;5.03;;;9.80;99.90;;;;;;4920145;29;20261;-83
2024/03/07 16:55:31;;;;;;;9.73;4.40;;;9.80;99.90;;;;;;4920015;29;20281;-77
2024/03/07 16:57:58;;;;;;;7.13;3.50;;;9.80;99.90;;;;;;4919645;29;20252;-75
2024/03/07 17:00:27;;;;;;;7.70;4.00;;;9.70;99.90;;;;;;4919517;29;20216;-81
2024/03/07 17:02:56;;;;;;;11.77;4.73;;;9.60;99.90;;;;;;4919726;29;20702;-75
2024/03/07 17:05:23;;;;;;;8.70;4.00;;;9.60;99.90;;;;;;4919875;29;20566;-75
2024/03/07 17:07:50;;;;;;;8.17;4.30;;;9.60;99.90;;;;;;4919784;29;20715;-82
2024/03/07 17:10:19;;;;;;;7.40;4.20;;;9.60;99.90;;;;;;4919809;29;20248;-76
2024/03/07 17:12:47;;;;;;;10.53;4.33;;;9.60;99.90;;;;;;4919725;29;20241;-76
2024/03/07 17:15:15;;;;;;;7.53;3.60;;;9.60;99.90;;;;;;4919676;29;20245;-81
2024/03/07 17:17:46;;;;;;;12.43;4.20;;;9.60;99.90;;;;;;4919322;29;20733;-75
2024/03/07 17:20:14;;;;;;;8.27;3.80;;;9.60;99.90;;;;;;4919690;29;20217;-75
2024/03/07 17:22:41;;;;;;;7.40;3.40;;;9.50;99.90;;;;;;4919744;29;20706;-76
2024/03/07 17:25:09;;;;;;;7.90;3.80;;;9.50;99.90;;;;;;4919700;29;20244;-80
2024/03/07 17:27:38;;;;;;;10.47;3.73;;;9.40;99.90;;;;;;4919519;29;20241;-76
2024/03/07 17:30:06;;;;;;;6.10;3.50;;;9.30;99.90;;;;;;4919095;29;20249;-76
2024/03/07 17:32:34;;;;;;;8.80;3.50;;;9.30;99.90;;;;;;4919018;29;20236;-77
2024/03/07 17:35:02;;;;;;;8.43;3.67;;;9.20;99.90;;;;;;4918852;29;20272;-80
2024/03/07 17:37:29;;;;;;;5.67;3.13;;;9.10;99.90;;;;;;4919437;29;20256;-76
2024/03/07 17:39:57;;;;;;;10.07;3.30;;;9.10;99.90;;;;;;4919275;29;20309;-77
2024/03/07 17:42:25;;;;;;;8.97;3.37;;;9.10;99.90;;;;;;4919053;29;20272;-77
2024/03/07 17:44:54;;;;;;;8.57;3.77;;;9.00;99.90;;;;;;4918808;29;20218;-76
2024/03/07 17:47:21;;;;;;;7.30;3.37;;;9.10;99.90;;;;;;4919134;29;20231;-77
2024/03/07 17:49:50;;;;;;;8.10;3.03;;;9.00;99.90;;;;;;4919286;29;20261;-75
2024/03/07 17:52:20;;;;;;;5.77;2.90;;;9.10;99.90;;;;;;4919128;29;20225;-76
2024/03/07 17:54:47;;;;;;;9.23;3.03;;;8.90;99.90;;;;;;4918871;29;20327;-75
2024/03/07 17:57:15;;;;;;;5.17;2.87;;;8.80;99.90;;;;;;4918827;29;20674;-75
2024/03/07 17:59:46;;;;;;;7.80;3.20;;;8.80;99.90;;;;;;4919306;29;20612;-75
2024/03/07 18:02:16;;;;;;;5.90;3.03;;;8.70;99.90;;;;;;4918787;29;20226;-75
2024/03/07 18:04:49;;;;;;;7.57;3.40;;;8.70;99.90;;;;;;4918774;29;20253;-79
2024/03/07 18:07:17;;;;;;;6.93;3.33;;;8.70;99.90;;;;;;4919133;29;20221;-75
2024/03/07 18:09:44;;;;;;;9.40;4.03;;;8.60;99.90;;;;;;4913534;29;20240;-75
2024/03/07 18:12:13;;;;;;;9.00;3.30;;;8.60;99.90;;;;;;4918588;29;20273;-78
2024/03/07 18:14:41;;;;;;;5.73;3.07;;;8.60;99.90;;;;;;4917998;29;20241;-74
2024/03/07 18:17:08;;;;;;;9.07;3.70;;;8.50;99.90;;;;;;4918516;29;20221;-74
2024/03/07 18:19:36;;;;;;;7.60;3.20;;;8.50;99.90;;;;;;4918071;29;20717;-75
